Time;durP1;ratioP1;P1;durP2;ratioP2;P2;SDS_P1;SDS_P2;PMS_P1;PMS_P2;Temp;Humidity;BMP_temperature;BMP_pressure;BME280_temperature;BME280_humidity;BME280_pressure;Samples;Min_cycle;Max_cycle;Signal;HPM_P1;HPM_P2
2021/10/31 00:00:20;;;;;;;7.10;4.65;;;;;;;6.54;100.00;92598.06;2090322;28;20497;-86
2021/10/31 00:01:21;;;;;;;7.22;4.15;;;;;;;6.49;100.00;92593.22;2107150;28;20102;-83
2021/10/31 00:02:22;;;;;;;5.35;4.63;;;;;;;6.49;100.00;92595.88;2098326;28;20020;-85
2021/10/31 00:03:23;;;;;;;6.78;4.63;;;;;;;6.48;100.00;92608.41;2098933;28;20093;-84
2021/10/31 00:04:25;;;;;;;5.72;4.40;;;;;;;6.38;100.00;92603.25;2105682;28;20107;-83
2021/10/31 00:05:26;;;;;;;4.93;4.43;;;;;;;6.32;100.00;92602.94;2107151;28;20504;-87
2021/10/31 00:06:31;;;;;;;4.88;4.15;;;;;;;6.30;100.00;92602.59;2107566;28;20026;-84
2021/10/31 00:07:32;;;;;;;4.15;3.75;;;;;;;6.18;100.00;92603.13;2107712;28;20020;-86
2021/10/31 00:08:34;;;;;;;4.35;3.95;;;;;;;6.17;100.00;92591.78;2106272;28;20047;-84
2021/10/31 00:09:36;;;;;;;4.45;4.05;;;;;;;6.19;100.00;92594.00;2102454;28;20025;-83
2021/10/31 00:10:37;;;;;;;4.80;4.40;;;;;;;6.03;100.00;92595.38;2106576;28;20028;-83
2021/10/31 00:11:41;;;;;;;5.05;4.00;;;;;;;6.04;100.00;92596.88;2094742;28;20494;-83
2021/10/31 00:12:42;;;;;;;4.78;4.38;;;;;;;6.09;100.00;92606.28;2093787;28;20059;-85
2021/10/31 00:13:43;;;;;;;4.72;4.22;;;;;;;6.18;100.00;92595.91;2087148;28;20159;-85
2021/10/31 00:14:45;;;;;;;5.20;4.70;;;;;;;6.25;100.00;92597.75;2089557;28;20017;-85
2021/10/31 00:15:45;;;;;;;5.45;4.88;;;;;;;6.26;100.00;92599.22;2098687;28;20501;-83
2021/10/31 00:16:47;;;;;;;5.72;4.68;;;;;;;6.31;100.00;92596.88;2098461;28;20020;-85
2021/10/31 00:17:48;;;;;;;5.93;5.22;;;;;;;6.30;100.00;92606.00;2098767;28;20020;-85
2021/10/31 00:18:49;;;;;;;5.32;4.82;;;;;;;6.26;100.00;92610.59;2098558;28;20027;-86
2021/10/31 00:19:50;;;;;;;7.88;5.03;;;;;;;6.31;100.00;92604.09;2107047;28;20081;-83
2021/10/31 00:20:51;;;;;;;5.70;5.20;;;;;;;6.28;100.00;92616.28;2106869;28;20110;-84
2021/10/31 00:21:52;;;;;;;5.53;4.72;;;;;;;6.24;100.00;92610.25;2098310;28;20111;-85
2021/10/31 00:22:53;;;;;;;5.03;4.25;;;;;;;6.21;100.00;92610.31;2091965;28;20491;-87
2021/10/31 00:23:55;;;;;;;6.97;5.32;;;;;;;6.18;100.00;92609.19;2113750;28;20027;-83
2021/10/31 00:24:56;;;;;;;7.60;5.38;;;;;;;6.36;100.00;92610.84;2106511;28;20032;-83
2021/10/31 00:25:57;;;;;;;5.70;4.90;;;;;;;6.38;100.00;92608.56;2098728;28;20749;-82
2021/10/31 00:26:57;;;;;;;6.00;4.70;;;;;;;6.40;100.00;92606.25;2109868;28;20062;-83
2021/10/31 00:27:59;;;;;;;5.90;4.93;;;;;;;6.42;100.00;92603.94;2107533;28;20604;-83
2021/10/31 00:29:00;;;;;;;6.50;5.15;;;;;;;6.38;100.00;92604.00;2091638;28;20071;-85
2021/10/31 00:30:01;;;;;;;7.05;5.25;;;;;;;6.39;100.00;92613.47;2090381;28;20057;-82
2021/10/31 00:31:03;;;;;;;7.00;4.88;;;;;;;6.51;100.00;92607.59;2097751;28;20028;-86
2021/10/31 00:32:05;;;;;;;6.30;4.97;;;;;;;6.43;100.00;92592.94;2090524;28;20028;-84
2021/10/31 00:33:05;;;;;;;6.03;5.40;;;;;;;6.44;100.00;92601.63;2096961;28;20055;-84
2021/10/31 00:34:07;;;;;;;7.53;5.53;;;;;;;6.49;100.00;92604.56;2081486;28;20478;-84
2021/10/31 00:35:08;;;;;;;8.77;5.60;;;;;;;6.38;100.00;92609.31;2105184;28;20092;-86
2021/10/31 00:36:09;;;;;;;6.32;4.75;;;;;;;6.34;100.00;92619.22;2106946;28;20077;-86
2021/10/31 00:37:10;;;;;;;5.28;4.78;;;;;;;6.30;100.00;92619.25;2098424;28;20056;-82
2021/10/31 00:38:11;;;;;;;6.07;5.43;;;;;;;6.26;100.00;92620.47;2106905;28;20082;-83
2021/10/31 00:39:11;;;;;;;5.50;4.97;;;;;;;6.24;100.00;92625.44;2123767;27;20019;-82
2021/10/31 00:40:13;;;;;;;5.88;4.90;;;;;;;6.24;100.00;92622.78;2115282;28;20019;-83
2021/10/31 00:41:14;;;;;;;5.82;5.10;;;;;;;6.25;100.00;92617.06;2090161;28;20025;-82
2021/10/31 00:42:15;;;;;;;5.45;4.95;;;;;;;6.25;100.00;92609.09;2089681;28;20277;-81
2021/10/31 00:43:16;;;;;;;6.00;5.40;;;;;;;6.23;100.00;92614.06;2098357;28;20052;-86
2021/10/31 00:44:17;;;;;;;4.90;4.40;;;;;;;6.18;100.00;92616.41;2089743;28;20405;-86
2021/10/31 00:45:19;;;;;;;6.28;5.68;;;;;;;6.18;100.00;92614.50;2090384;28;20119;-83
2021/10/31 00:46:20;;;;;;;6.75;5.35;;;;;;;6.18;100.00;92611.09;2089513;28;20021;-83
2021/10/31 00:47:20;;;;;;;5.47;4.97;;;;;;;6.19;100.00;92613.38;2081780;28;20070;-85
2021/10/31 00:48:22;;;;;;;6.47;5.18;;;;;;;6.19;100.00;92612.59;2088973;28;20453;-84
2021/10/31 00:49:22;;;;;;;5.43;4.88;;;;;;;6.14;100.00;92619.09;2098521;28;20054;-85
2021/10/31 00:50:23;;;;;;;5.75;5.22;;;;;;;6.12;100.00;92605.50;2098315;28;20016;-80
2021/10/31 00:51:26;;;;;;;6.95;5.45;;;;;;;6.20;100.00;92609.56;2098392;28;20031;-84
2021/10/31 00:52:30;;;;;;;7.00;5.32;;;;;;;6.28;100.00;92610.22;2098286;28;20025;-83
2021/10/31 00:53:31;;;;;;;6.15;4.70;;;;;;;6.36;100.00;92610.84;2098649;28;20025;-85
2021/10/31 00:54:34;;;;;;;6.32;5.35;;;;;;;6.32;100.00;92610.91;2098347;28;20451;-84
2021/10/31 00:55:38;;;;;;;11.88;5.68;;;;;;;6.33;100.00;92614.31;2107020;28;20122;-83
2021/10/31 00:56:39;;;;;;;5.97;5.35;;;;;;;6.46;100.00;92617.94;2106561;28;20032;-83
2021/10/31 00:57:41;;;;;;;6.57;5.55;;;;;;;6.41;100.00;92616.47;2110425;28;20473;-84
2021/10/31 00:58:41;;;;;;;6.88;5.20;;;;;;;6.40;100.00;92620.25;2103404;28;20030;-85
2021/10/31 00:59:43;;;;;;;9.70;6.50;;;;;;;6.37;100.00;92621.09;2090124;28;20021;-85
2021/10/31 01:00:46;;;;;;;9.68;5.35;;;;;;;6.35;100.00;92625.28;2093126;28;20024;-85
2021/10/31 01:01:49;;;;;;;6.78;5.57;;;;;;;6.25;100.00;92625.03;2098753;28;20412;-82
2021/10/31 01:02:50;;;;;;;8.23;5.50;;;;;;;6.20;100.00;92625.47;2106864;28;20039;-84
2021/10/31 01:03:52;;;;;;;7.97;6.15;;;;;;;6.23;100.00;92629.22;2106700;28;20024;-86
2021/10/31 01:04:57;;;;;;;7.07;5.70;;;;;;;6.26;100.00;92621.22;2090395;28;20047;-83
2021/10/31 01:06:27;;;;;;;7.03;6.07;;;;;;;6.15;100.00;92619.88;2090481;28;20029;-86
2021/10/31 01:07:46;;;;;;;7.95;6.53;;;;;;;6.07;100.00;92631.72;2095423;28;20040;-84
2021/10/31 01:09:10;;;;;;;8.57;6.22;;;;;;;6.06;100.00;92633.63;2091031;28;20083;-86
2021/10/31 01:10:27;;;;;;;7.47;6.10;;;;;;;6.01;100.00;92629.50;2101655;28;20031;-83
2021/10/31 01:11:53;;;;;;;7.95;6.45;;;;;;;6.01;100.00;92628.75;2095164;28;20024;-86
2021/10/31 01:13:00;;;;;;;7.75;6.13;;;;;;;5.93;100.00;92640.63;2093608;28;20501;-82
2021/10/31 01:14:23;;;;;;;7.57;6.18;;;;;;;5.98;100.00;92634.88;2090425;28;20067;-84
2021/10/31 01:15:49;;;;;;;7.13;6.13;;;;;;;6.15;100.00;92636.53;2115782;27;20034;-88
2021/10/31 01:17:20;;;;;;;8.65;6.32;;;;;;;6.15;100.00;92638.44;2108529;28;20024;-83
2021/10/31 01:18:36;;;;;;;10.25;6.93;;;;;;;6.13;100.00;92640.72;2106821;28;20028;-86
2021/10/31 01:20:27;;;;;;;7.55;6.13;;;;;;;6.08;100.00;92639.28;2097885;28;20056;-85
2021/10/31 01:21:52;;;;;;;6.18;5.57;;;;;;;6.04;100.00;92628.69;2070523;28;20552;-82
2021/10/31 01:22:58;;;;;;;7.47;6.65;;;;;;;6.22;100.00;92631.13;2067272;28;20037;-87
2021/10/31 01:24:36;;;;;;;7.88;5.68;;;;;;;6.18;100.00;92633.06;2065898;28;20034;-82
2021/10/31 01:25:52;;;;;;;7.53;6.32;;;;;;;6.15;100.00;92638.44;2069921;28;20022;-83
2021/10/31 01:27:11;;;;;;;10.07;7.50;;;;;;;6.17;100.00;92636.88;2075195;28;20435;-85
2021/10/31 01:28:33;;;;;;;9.50;6.93;;;;;;;6.22;100.00;92620.50;2097835;28;20113;-86
2021/10/31 01:30:01;;;;;;;7.90;6.57;;;;;;;6.14;100.00;92613.03;2095741;28;20024;-82
2021/10/31 01:31:10;;;;;;;8.32;6.43;;;;;;;6.15;100.00;92609.25;2093399;28;20454;-85
2021/10/31 01:32:39;;;;;;;7.82;6.13;;;;;;;6.18;100.00;92611.84;2091687;28;20040;-85
2021/10/31 01:34:09;;;;;;;8.82;6.82;;;;;;;6.23;100.00;92595.50;2101952;28;20084;-83
2021/10/31 01:35:22;;;;;;;9.02;7.00;;;;;;;6.20;100.00;92595.53;2093770;28;20021;-85
2021/10/31 01:36:48;;;;;;;10.18;6.25;;;;;;;6.19;100.00;92596.66;2101449;28;20032;-79
2021/10/31 01:38:07;;;;;;;7.88;7.07;;;;;;;6.24;100.00;92594.34;2097975;28;20031;-85
2021/10/31 01:39:19;;;;;;;8.52;7.15;;;;;;;6.14;100.00;92603.19;2086664;28;20091;-83
2021/10/31 01:40:40;;;;;;;10.05;6.85;;;;;;;6.04;100.00;92596.88;2084942;28;20029;-86
2021/10/31 01:42:05;;;;;;;9.02;7.53;;;;;;;6.14;100.00;92594.47;2095179;28;20043;-85
2021/10/31 01:43:24;;;;;;;7.60;6.63;;;;;;;6.07;100.00;92586.63;2092801;28;20443;-84
2021/10/31 01:44:38;;;;;;;10.15;7.00;;;;;;;6.12;100.00;92580.88;2094511;28;20032;-81
2021/10/31 01:45:39;;;;;;;7.95;7.10;;;;;;;6.10;100.00;92588.47;2101995;28;20023;-84
2021/10/31 01:47:05;;;;;;;8.50;7.07;;;;;;;6.03;100.00;92590.06;2097730;28;20032;-83
2021/10/31 01:48:30;;;;;;;8.57;6.80;;;;;;;6.02;100.00;92582.50;2097738;28;20047;-84
2021/10/31 01:50:15;;;;;;;10.57;7.43;;;;;;;6.01;100.00;92586.28;2096027;28;20111;-82
2021/10/31 01:51:27;;;;;;;7.65;6.85;;;;;;;5.98;100.00;92590.50;2091346;28;20032;-84
2021/10/31 01:52:37;;;;;;;10.18;7.30;;;;;;;5.95;100.00;92601.91;2105910;28;20038;-84
2021/10/31 01:54:01;;;;;;;11.05;7.15;;;;;;;5.97;100.00;92596.97;2096771;28;20057;-86
2021/10/31 01:55:16;;;;;;;7.32;6.40;;;;;;;5.93;100.00;92606.13;2092813;28;20048;-86
2021/10/31 01:56:19;;;;;;;7.63;6.80;;;;;;;5.90;100.00;92607.63;2097729;28;20024;-85
2021/10/31 01:57:23;;;;;;;11.23;7.40;;;;;;;5.84;100.00;92606.59;2098323;28;20031;-87
2021/10/31 01:58:25;;;;;;;8.70;7.32;;;;;;;5.83;100.00;92613.03;2105958;28;20094;-82
2021/10/31 01:59:31;;;;;;;10.38;7.43;;;;;;;5.88;100.00;92607.28;2106053;28;20028;-84
2021/10/31 02:00:33;;;;;;;9.48;7.68;;;;;;;5.93;100.00;92608.78;2102830;28;20441;-85
2021/10/31 02:01:37;;;;;;;10.55;7.28;;;;;;;5.90;100.00;92602.34;2093145;28;20032;-86
2021/10/31 02:02:41;;;;;;;10.85;7.38;;;;;;;5.80;100.00;92606.63;2089911;28;20412;-88
2021/10/31 02:03:47;;;;;;;8.20;6.53;;;;;;;5.89;100.00;92600.09;2093971;28;20039;-84
2021/10/31 02:04:50;;;;;;;7.97;6.07;;;;;;;5.85;100.00;92596.72;2090048;28;20035;-85
2021/10/31 02:05:53;;;;;;;9.93;6.63;;;;;;;5.77;100.00;92601.34;2101909;28;20075;-86
2021/10/31 02:08:33;;;;;;;;;;;;;;;5.70;100.00;92596.88;2145110;27;21275;-88
2021/10/31 02:09:34;;;;;;;6.70;6.00;;;;;;;5.68;100.00;92593.88;2130538;27;19911;-89
2021/10/31 02:10:39;;;;;;;9.18;6.55;;;;;;;5.65;100.00;92597.31;2113210;28;20413;-88
2021/10/31 02:11:42;;;;;;;7.65;6.15;;;;;;;5.64;100.00;92597.72;2097636;28;20120;-85
2021/10/31 02:12:46;;;;;;;8.60;6.20;;;;;;;5.58;100.00;92600.06;2111569;28;20027;-87
2021/10/31 02:13:50;;;;;;;8.18;6.07;;;;;;;5.58;100.00;92594.03;2123287;27;20019;-86
2021/10/31 02:14:53;;;;;;;6.68;5.95;;;;;;;5.51;100.00;92590.28;2120144;28;20030;-85
2021/10/31 02:15:55;;;;;;;6.07;5.55;;;;;;;5.48;100.00;92598.28;2105491;28;20052;-86
2021/10/31 02:16:58;;;;;;;6.15;5.55;;;;;;;5.46;100.00;92597.94;2113493;27;20447;-86
2021/10/31 02:18:00;;;;;;;7.88;5.75;;;;;;;5.42;100.00;92597.97;2121850;27;20158;-85
2021/10/31 02:19:07;;;;;;;7.40;6.15;;;;;;;5.42;100.00;92594.56;2122039;27;20059;-86
2021/10/31 02:20:09;;;;;;;7.97;5.70;;;;;;;5.41;100.00;92599.13;2114322;28;20082;-84
2021/10/31 02:21:10;;;;;;;6.25;5.63;;;;;;;5.38;100.00;92599.16;2103547;28;20103;-89
2021/10/31 02:22:19;;;;;;;7.40;5.13;;;;;;;5.37;100.00;92595.75;2105046;28;20373;-88
2021/10/31 02:23:20;;;;;;;8.25;6.13;;;;;;;5.33;100.00;92602.22;2097961;28;20027;-85
2021/10/31 02:24:21;;;;;;;8.20;5.55;;;;;;;5.29;100.00;92599.63;2096737;28;20031;-88
2021/10/31 02:25:24;;;;;;;6.95;6.22;;;;;;;5.30;100.00;92604.50;2112122;28;20016;-84
2021/10/31 02:26:25;;;;;;;7.85;7.05;;;;;;;5.47;100.00;92605.47;2104997;28;20428;-85
2021/10/31 02:27:31;;;;;;;9.40;8.15;;;;;;;5.72;100.00;92607.84;2096102;28;20693;-88
2021/10/31 02:28:31;;;;;;;9.15;7.55;;;;;;;5.62;100.00;92600.00;2106454;28;20032;-87
2021/10/31 02:29:44;;;;;;;11.77;8.52;;;;;;;5.62;100.00;92600.78;2101706;28;20037;-85
2021/10/31 02:30:45;;;;;;;10.20;7.47;;;;;;;5.59;100.00;92601.56;2104756;28;20025;-85
2021/10/31 02:31:46;;;;;;;9.63;8.05;;;;;;;5.58;100.00;92610.69;2104626;28;20984;-84
2021/10/31 02:32:47;;;;;;;9.45;8.10;;;;;;;5.69;100.00;92603.34;2104706;28;20032;-86
2021/10/31 02:33:49;;;;;;;11.80;7.93;;;;;;;5.66;100.00;92601.47;2112910;28;20032;-88
2021/10/31 02:34:50;;;;;;;9.40;8.40;;;;;;;5.60;100.00;92602.31;2104662;28;20032;-84
2021/10/31 02:35:51;;;;;;;10.13;7.88;;;;;;;5.55;100.00;92606.16;2104909;28;20039;-89
2021/10/31 02:36:52;;;;;;;10.45;8.40;;;;;;;5.52;100.00;92605.03;2113470;28;20062;-85
2021/10/31 02:37:53;;;;;;;9.48;8.15;;;;;;;5.53;100.00;92601.25;2104726;28;21325;-86
2021/10/31 02:38:57;;;;;;;9.65;8.07;;;;;;;5.51;100.00;92606.19;2105015;28;20027;-87
2021/10/31 02:39:58;;;;;;;8.73;7.55;;;;;;;5.56;100.00;92597.03;2104483;28;20175;-86
2021/10/31 02:40:58;;;;;;;11.40;8.00;;;;;;;5.54;100.00;92602.00;2105022;28;20020;-88
2021/10/31 02:41:59;;;;;;;10.77;8.10;;;;;;;5.51;100.00;92597.50;2104528;28;20109;-90
2021/10/31 02:43:01;;;;;;;8.52;7.63;;;;;;;5.46;100.00;92595.28;2104801;28;20082;-86
2021/10/31 02:44:03;;;;;;;8.68;7.75;;;;;;;5.43;100.00;92593.41;2112967;28;20028;-89
2021/10/31 02:45:05;;;;;;;8.98;7.53;;;;;;;5.40;100.00;92600.25;2113392;28;20483;-86
2021/10/31 02:46:06;;;;;;;9.07;7.88;;;;;;;5.40;100.00;92600.25;2102656;28;20032;-88
2021/10/31 02:47:10;;;;;;;8.55;7.63;;;;;;;5.37;100.00;92593.09;2095834;28;20027;-86
2021/10/31 02:48:15;;;;;;;9.00;7.32;;;;;;;5.43;100.00;92604.00;2093796;28;20599;-87
2021/10/31 02:49:17;;;;;;;9.88;7.43;;;;;;;5.34;100.00;92604.47;2097584;28;20037;-85
2021/10/31 02:50:37;;;;;;;11.05;7.32;;;;;;;5.27;100.00;92602.66;2104865;28;20024;-84
2021/10/31 02:51:47;;;;;;;8.27;7.38;;;;;;;5.13;100.00;92596.75;2104748;28;20608;-86
2021/10/31 02:52:58;;;;;;;7.80;6.90;;;;;;;5.18;100.00;92596.31;2104208;28;20487;-88
2021/10/31 02:54:17;;;;;;;9.18;6.90;;;;;;;5.14;100.00;92599.00;2113096;28;20032;-85
2021/10/31 02:55:26;;;;;;;8.88;7.53;;;;;;;5.19;100.00;92609.19;2101420;28;20124;-86
2021/10/31 02:56:44;;;;;;;9.93;7.57;;;;;;;5.25;100.00;92594.34;2113000;28;20027;-86
2021/10/31 02:58:00;;;;;;;10.15;8.07;;;;;;;5.37;100.00;92600.31;2107068;28;20032;-88
2021/10/31 02:59:11;;;;;;;10.10;8.15;;;;;;;5.35;100.00;92590.06;2113810;28;20507;-86
2021/10/31 03:00:15;;;;;;;9.25;7.65;;;;;;;5.34;100.00;92588.56;2113187;28;20069;-86
2021/10/31 03:01:18;;;;;;;10.90;8.57;;;;;;;5.36;100.00;92588.19;2104531;28;20021;-85
2021/10/31 03:02:20;;;;;;;9.68;8.50;;;;;;;5.42;100.00;92583.97;2109563;28;20070;-88
2021/10/31 03:03:22;;;;;;;13.00;9.50;;;;;;;5.44;100.00;92582.41;2105117;28;20119;-85
2021/10/31 03:04:26;;;;;;;11.98;9.98;;;;;;;5.42;100.00;92583.97;2111808;28;20034;-87
2021/10/31 03:05:27;;;;;;;13.75;9.45;;;;;;;5.46;100.00;92582.78;2098711;28;20043;-84
2021/10/31 03:06:34;;;;;;;10.13;8.85;;;;;;;5.44;100.00;92579.00;2101346;28;20434;-87
2021/10/31 03:07:38;;;;;;;11.10;8.95;;;;;;;5.41;100.00;92579.81;2112525;28;20032;-87
2021/10/31 03:08:42;;;;;;;14.90;9.45;;;;;;;5.47;100.00;92578.97;2102993;28;20118;-85
2021/10/31 03:09:47;;;;;;;10.60;9.50;;;;;;;5.43;100.00;92583.56;2092026;28;20036;-84
2021/10/31 03:10:54;;;;;;;13.93;9.80;;;;;;;5.46;100.00;92577.47;2099293;28;20155;-85
2021/10/31 03:12:03;;;;;;;11.57;8.93;;;;;;;5.53;100.00;92573.97;2104142;28;20028;-87
2021/10/31 03:13:06;;;;;;;11.30;9.07;;;;;;;5.56;100.00;92575.84;2105020;28;20028;-88
2021/10/31 03:14:07;;;;;;;11.48;9.70;;;;;;;5.52;100.00;92581.19;2104693;28;20030;-88
2021/10/31 03:15:08;;;;;;;12.27;9.48;;;;;;;5.52;100.00;92581.19;2104360;28;20052;-87
2021/10/31 03:16:10;;;;;;;14.88;9.77;;;;;;;5.55;100.00;92574.34;2096378;28;20032;-88
2021/10/31 03:17:11;;;;;;;12.65;9.98;;;;;;;5.58;100.00;92572.81;2095859;28;20028;-87
2021/10/31 03:18:13;;;;;;;13.23;9.55;;;;;;;5.52;100.00;92580.44;2096815;28;20385;-89
2021/10/31 03:19:14;;;;;;;11.88;9.63;;;;;;;5.49;100.00;92575.94;2100257;28;20039;-84
2021/10/31 03:20:15;;;;;;;11.93;10.60;;;;;;;5.51;100.00;92573.63;2098854;28;20028;-85
2021/10/31 03:21:16;;;;;;;10.63;9.18;;;;;;;5.49;100.00;92574.03;2090612;28;20051;-88
2021/10/31 03:22:17;;;;;;;15.18;10.20;;;;;;;5.53;100.00;92572.09;2090451;28;20036;-87
2021/10/31 03:23:19;;;;;;;13.57;9.90;;;;;;;5.64;100.00;92568.56;2108080;28;20044;-84
2021/10/31 03:24:21;;;;;;;10.82;9.48;;;;;;;5.59;100.00;92572.41;2115631;28;20020;-89
2021/10/31 03:25:22;;;;;;;10.15;9.05;;;;;;;5.58;100.00;92570.16;2107154;28;20499;-84
2021/10/31 03:26:23;;;;;;;10.65;9.43;;;;;;;5.60;100.00;92570.50;2107504;28;20085;-83
2021/10/31 03:27:24;;;;;;;10.20;8.98;;;;;;;5.54;100.00;92568.28;2096456;28;20077;-88
2021/10/31 03:28:25;;;;;;;10.82;8.63;;;;;;;5.54;100.00;92565.66;2086971;28;20035;-88
2021/10/31 03:29:26;;;;;;;9.23;8.25;;;;;;;5.49;100.00;92568.75;2096162;28;20024;-87
2021/10/31 03:30:27;;;;;;;10.63;8.48;;;;;;;5.54;100.00;92564.91;2098894;28;20059;-88
2021/10/31 03:31:29;;;;;;;10.45;8.35;;;;;;;5.61;100.00;92572.75;2095823;28;20055;-89
2021/10/31 03:32:30;;;;;;;8.80;7.78;;;;;;;5.63;100.00;92565.16;2093293;28;20066;-87
2021/10/31 03:33:31;;;;;;;10.98;8.60;;;;;;;5.63;100.00;92562.50;2090616;28;20056;-87
2021/10/31 03:34:32;;;;;;;10.13;7.95;;;;;;;5.71;100.00;92565.84;2095684;28;20024;-87
2021/10/31 03:35:33;;;;;;;10.50;9.27;;;;;;;5.78;100.00;92555.88;2093621;28;21243;-87
2021/10/31 03:36:34;;;;;;;10.90;8.90;;;;;;;5.76;100.00;92565.38;2090279;28;20028;-86
2021/10/31 03:37:35;;;;;;;12.10;9.27;;;;;;;5.85;100.00;92559.59;2093946;28;20016;-88
2021/10/31 03:38:36;;;;;;;9.80;8.63;;;;;;;5.80;100.00;92558.88;2098426;28;20504;-87
2021/10/31 03:39:37;;;;;;;11.68;9.45;;;;;;;5.79;100.00;92559.28;2098942;28;20054;-86
2021/10/31 03:40:38;;;;;;;10.40;8.70;;;;;;;5.80;100.00;92564.19;2090254;28;20029;-87
2021/10/31 03:41:40;;;;;;;11.63;9.10;;;;;;;5.91;100.00;92560.63;2098576;28;20188;-84
2021/10/31 03:42:41;;;;;;;11.23;9.77;;;;;;;5.91;100.00;92565.94;2091022;28;20148;-87
2021/10/31 03:43:42;;;;;;;12.35;10.10;;;;;;;5.90;100.00;92551.19;2098252;28;20025;-84
2021/10/31 03:44:52;;;;;;;13.43;10.40;;;;;;;5.97;100.00;92562.50;2098897;28;20025;-89
2021/10/31 03:45:53;;;;;;;;;;;;;;;6.00;100.00;92552.97;2100330;28;20024;-86
2021/10/31 03:46:54;;;;;;;12.73;8.80;;;;;;;6.05;100.00;92552.50;2098653;28;19918;-86
2021/10/31 03:47:54;;;;;;;12.63;9.65;;;;;;;6.05;100.00;92565.78;2089527;28;20025;-87
2021/10/31 03:48:55;;;;;;;13.88;9.85;;;;;;;6.09;100.00;92560.44;2096836;28;20066;-87
2021/10/31 03:49:56;;;;;;;11.52;9.93;;;;;;;6.10;100.00;92564.56;2087548;28;20398;-89
2021/10/31 03:50:57;;;;;;;12.48;10.30;;;;;;;6.07;100.00;92560.84;2090554;28;20167;-86
2021/10/31 03:51:58;;;;;;;16.73;9.65;;;;;;;6.11;100.00;92555.50;2089907;28;20466;-85
2021/10/31 03:52:59;;;;;;;11.93;9.90;;;;;;;6.23;100.00;92555.69;2097275;28;20028;-88
2021/10/31 03:54:01;;;;;;;12.65;10.02;;;;;;;6.23;100.00;92555.69;2091132;28;20036;-88
2021/10/31 03:55:02;;;;;;;11.85;10.57;;;;;;;6.18;100.00;92555.38;2094618;28;20933;-87
2021/10/31 03:56:04;;;;;;;12.38;10.45;;;;;;;6.22;100.00;92553.41;2090486;28;20021;-87
2021/10/31 03:57:05;;;;;;;14.48;11.13;;;;;;;6.23;100.00;92557.56;2098467;28;20059;-87
2021/10/31 03:58:06;;;;;;;15.25;11.88;;;;;;;6.21;100.00;92559.88;2090788;28;20021;-87
2021/10/31 03:59:07;;;;;;;12.57;11.02;;;;;;;6.23;100.00;92558.34;2094874;28;20116;-87
2021/10/31 04:00:13;;;;;;;13.30;11.45;;;;;;;6.24;100.00;92562.50;2093292;28;20028;-88
2021/10/31 04:01:14;;;;;;;12.35;10.60;;;;;;;6.30;100.00;92568.09;2094653;28;20057;-87
2021/10/31 04:02:15;;;;;;;13.07;11.02;;;;;;;6.39;100.00;92565.69;2093709;28;20024;-86
2021/10/31 04:03:16;;;;;;;15.57;12.02;;;;;;;6.40;100.00;92559.22;2097093;28;20033;-87
2021/10/31 04:04:17;;;;;;;14.63;12.00;;;;;;;6.39;100.00;92555.06;2098309;28;20024;-86
2021/10/31 04:05:18;;;;;;;15.32;12.05;;;;;;;6.39;100.00;92562.28;2094047;28;20024;-87
2021/10/31 04:06:19;;;;;;;14.95;11.45;;;;;;;6.38;100.00;92558.13;2090426;28;20028;-87
2021/10/31 04:07:20;;;;;;;15.15;12.32;;;;;;;6.46;100.00;92554.97;2085300;28;20052;-86
2021/10/31 04:08:28;;;;;;;14.35;12.30;;;;;;;6.48;100.00;92552.63;2114455;28;20039;-88
2021/10/31 04:09:30;;;;;;;13.65;11.25;;;;;;;6.42;100.00;92558.81;2098882;28;20024;-84
2021/10/31 04:10:38;;;;;;;13.90;11.68;;;;;;;6.44;100.00;92554.59;2084230;28;20028;-88
2021/10/31 04:11:41;;;;;;;15.15;12.43;;;;;;;6.50;100.00;92562.88;2085981;28;20517;-87
2021/10/31 04:12:42;;;;;;;17.27;12.23;;;;;;;6.46;100.00;92557.63;2090370;28;20025;-85
2021/10/31 04:13:43;;;;;;;13.70;11.73;;;;;;;6.48;100.00;92565.16;2090043;28;20071;-86
2021/10/31 04:14:44;;;;;;;17.67;12.70;;;;;;;6.54;100.00;92566.19;2090304;28;20120;-87
2021/10/31 04:15:45;;;;;;;12.75;11.45;;;;;;;6.48;100.00;92565.16;2090275;28;20021;-86
2021/10/31 04:16:46;;;;;;;13.77;11.85;;;;;;;6.48;100.00;92570.47;2090297;28;20032;-88
2021/10/31 04:17:47;;;;;;;17.48;12.25;;;;;;;6.53;100.00;92560.16;2098335;28;20544;-89
2021/10/31 04:18:48;;;;;;;14.15;12.52;;;;;;;6.50;100.00;92566.28;2098407;28;20040;-88
2021/10/31 04:19:49;;;;;;;13.95;12.05;;;;;;;6.51;100.00;92557.16;2089987;28;20112;-85
2021/10/31 04:20:50;;;;;;;15.13;11.60;;;;;;;6.49;100.00;92559.44;2090299;28;20164;-86
2021/10/31 04:21:51;;;;;;;12.50;10.48;;;;;;;6.52;100.00;92552.59;2089746;28;20025;-88
2021/10/31 04:22:52;;;;;;;13.55;11.93;;;;;;;6.56;100.00;92562.00;2089920;28;20017;-86
2021/10/31 04:23:53;;;;;;;18.02;12.52;;;;;;;6.56;100.00;92562.00;2098832;28;20085;-87
2021/10/31 04:24:54;;;;;;;14.85;11.38;;;;;;;6.58;100.00;92553.63;2104599;28;20020;-88
2021/10/31 04:25:56;;;;;;;16.48;12.52;;;;;;;6.67;100.00;92555.75;2114851;28;20034;-88
2021/10/31 04:26:59;;;;;;;17.05;12.70;;;;;;;6.65;100.00;92558.09;2105053;28;20468;-85
2021/10/31 04:28:01;;;;;;;13.82;12.05;;;;;;;6.66;100.00;92562.22;2091775;28;20036;-87
2021/10/31 04:29:02;;;;;;;15.98;12.13;;;;;;;6.64;100.00;92554.69;2090165;28;20021;-85
2021/10/31 04:30:05;;;;;;;17.58;12.20;;;;;;;6.64;100.00;92557.34;2089895;28;20096;-85
2021/10/31 04:31:06;;;;;;;16.38;11.85;;;;;;;6.71;100.00;92549.25;2097833;28;20059;-90
2021/10/31 04:32:07;;;;;;;16.42;11.38;;;;;;;6.72;100.00;92550.00;2097965;28;20020;-86
2021/10/31 04:33:08;;;;;;;15.85;12.60;;;;;;;6.70;100.00;92544.34;2098268;28;20054;-88
2021/10/31 04:34:09;;;;;;;13.82;11.55;;;;;;;6.72;100.00;92548.09;2106297;28;20115;-88
2021/10/31 04:35:10;;;;;;;16.45;11.90;;;;;;;6.70;100.00;92541.69;2098341;28;20504;-85
2021/10/31 04:36:11;;;;;;;16.27;14.07;;;;;;;6.71;100.00;92541.28;2089392;28;20445;-86
2021/10/31 04:37:13;;;;;;;14.38;12.07;;;;;;;6.69;100.00;92534.88;2098183;28;20508;-89
2021/10/31 04:38:20;;;;;;;16.33;12.50;;;;;;;6.80;100.00;92540.75;2097948;28;20111;-83
2021/10/31 04:39:21;;;;;;;14.40;12.15;;;;;;;6.80;100.00;92540.75;2096511;28;20039;-88
2021/10/31 04:40:24;;;;;;;13.30;11.43;;;;;;;6.79;100.00;92540.00;2098007;28;20024;-89
2021/10/31 04:41:27;;;;;;;11.35;10.15;;;;;;;7.04;100.00;92528.19;2092180;28;20108;-87
2021/10/31 04:42:31;;;;;;;13.52;10.75;;;;;;;6.94;100.00;92537.88;2101003;28;20043;-85
2021/10/31 04:43:32;;;;;;;14.68;10.15;;;;;;;6.91;100.00;92536.00;2106606;28;20110;-85
2021/10/31 04:44:33;;;;;;;13.30;10.88;;;;;;;6.91;100.00;92522.72;2089778;28;20079;-87
2021/10/31 04:45:34;;;;;;;14.60;11.52;;;;;;;6.90;100.00;92523.91;2081913;28;20032;-87
2021/10/31 04:46:35;;;;;;;13.85;10.77;;;;;;;6.88;100.00;92523.53;2095242;28;20103;-87
2021/10/31 04:47:37;;;;;;;12.60;11.25;;;;;;;6.89;100.00;92524.28;2089423;28;20036;-85
2021/10/31 04:48:38;;;;;;;13.18;10.82;;;;;;;6.93;100.00;92523.06;2089925;28;20028;-86
2021/10/31 04:49:39;;;;;;;12.73;10.45;;;;;;;6.87;100.00;92526.59;2098069;28;20385;-86
2021/10/31 04:50:40;;;;;;;11.60;10.40;;;;;;;6.85;100.00;92526.25;2098239;28;20025;-88
2021/10/31 04:51:41;;;;;;;13.07;10.57;;;;;;;6.77;100.00;92522.97;2094586;28;20032;-88
2021/10/31 04:52:43;;;;;;;12.35;10.80;;;;;;;6.73;100.00;92516.97;2089796;28;20108;-88
2021/10/31 04:53:43;;;;;;;14.40;11.07;;;;;;;6.78;100.00;92511.19;2101744;28;20083;-90
2021/10/31 04:54:44;;;;;;;14.77;11.00;;;;;;;6.68;100.00;92510.22;2103062;28;20031;-87
2021/10/31 04:55:45;;;;;;;12.55;11.02;;;;;;;6.65;100.00;92516.34;2081611;28;20076;-87
2021/10/31 04:56:47;;;;;;;13.13;10.95;;;;;;;6.65;100.00;92507.63;2098113;28;20020;-84
2021/10/31 04:57:47;;;;;;;11.35;10.13;;;;;;;6.63;100.00;92510.69;2097845;28;20067;-88
2021/10/31 04:58:52;;;;;;;12.80;10.23;;;;;;;6.63;100.00;92513.34;2090031;28;20024;-85
2021/10/31 04:59:53;;;;;;;12.50;9.93;;;;;;;6.57;100.00;92507.00;2089985;28;20155;-85
2021/10/31 05:00:54;;;;;;;12.45;9.82;;;;;;;6.56;100.00;92516.88;2098288;28;20031;-88
2021/10/31 05:01:55;;;;;;;12.93;9.80;;;;;;;6.53;100.00;92501.00;2106036;28;20032;-88
2021/10/31 05:02:56;;;;;;;9.88;8.93;;;;;;;6.52;100.00;92504.81;2089651;28;20461;-87
2021/10/31 05:03:57;;;;;;;15.13;9.73;;;;;;;6.58;100.00;92503.19;2086220;28;20031;-89